createdAt,value
2019-03-06T00:00:42.857Z,-451.33
2019-03-06T00:01:43.180Z,-454.41
2019-03-06T00:02:43.424Z,-450.13
2019-03-06T00:03:43.752Z,-451.74
2019-03-06T00:04:43.960Z,-451.63
2019-03-06T00:05:44.231Z,-452.44
2019-03-06T00:06:44.548Z,-452.61
2019-03-06T00:07:44.806Z,-453.40
2019-03-06T00:08:45.102Z,-453.81
2019-03-06T00:09:45.366Z,-451.31
2019-03-06T00:10:45.646Z,-450.05
2019-03-06T00:11:45.956Z,-453.68
2019-03-06T00:12:46.241Z,-455.25
2019-03-06T00:13:46.497Z,-452.64
2019-03-06T00:14:46.752Z,-453.34
2019-03-06T00:15:47.029Z,-451.75
2019-03-06T00:16:47.340Z,-452.28
2019-03-06T00:17:47.581Z,-452.71
2019-03-06T00:18:47.859Z,-451.15
2019-03-06T00:19:48.145Z,-453.60
2019-03-06T00:20:48.506Z,-457.25
2019-03-06T00:21:48.698Z,-453.21
2019-03-06T00:22:48.938Z,-456.25
2019-03-06T00:23:49.235Z,-452.99
2019-03-06T00:24:49.524Z,-453.80
2019-03-06T00:25:54.661Z,-455.41
2019-03-06T00:26:50.102Z,-454.07
2019-03-06T00:27:50.345Z,-455.16
2019-03-06T00:28:50.739Z,-454.99
2019-03-06T00:30:04.632Z,-453.24
2019-03-06T00:30:52.183Z,-456.59
2019-03-06T00:31:51.472Z,-452.36
2019-03-06T00:32:51.734Z,-457.66
2019-03-06T00:33:51.991Z,-455.42
2019-03-06T00:34:52.297Z,-456.73
2019-03-06T00:35:52.575Z,-456.29
2019-03-06T00:36:52.943Z,-457.77
2019-03-06T00:37:53.132Z,-457.94
2019-03-06T00:38:53.378Z,-454.39
2019-03-06T00:39:53.673Z,-454.85
2019-03-06T00:40:53.974Z,-454.92
2019-03-06T00:41:54.277Z,-451.83
2019-03-06T00:42:54.526Z,-451.15
2019-03-06T00:43:54.802Z,-452.19
2019-03-06T00:44:55.126Z,-451.54
2019-03-06T00:45:55.329Z,-451.58
2019-03-06T00:46:55.640Z,-450.55
2019-03-06T00:47:55.889Z,-454.31
2019-03-06T00:48:56.170Z,-452.20
2019-03-06T00:49:56.477Z,-453.37
2019-03-06T00:50:56.714Z,-454.20
2019-03-06T00:51:57.030Z,-452.09
2019-03-06T00:52:57.338Z,-455.16
2019-03-06T00:53:57.649Z,-456.87
2019-03-06T00:54:57.862Z,-452.08
2019-03-06T00:55:58.580Z,-451.67
2019-03-06T00:56:58.405Z,-454.24
2019-03-06T00:57:58.670Z,-456.48
2019-03-06T00:58:58.945Z,-455.31
2019-03-06T00:59:59.238Z,-455.33
2019-03-06T01:00:59.504Z,-454.61
2019-03-06T01:01:59.895Z,-454.16
2019-03-06T01:03:00.049Z,-453.82
2019-03-06T01:04:00.327Z,-454.56
2019-03-06T01:05:00.611Z,-453.55
2019-03-06T01:06:00.871Z,-454.86
2019-03-06T01:07:01.162Z,-455.18
2019-03-06T01:08:01.419Z,-454.92
2019-03-06T01:09:01.709Z,-455.25
2019-03-06T01:10:02.053Z,-455.54
2019-03-06T01:11:02.254Z,-456.78
2019-03-06T01:12:02.560Z,-454.77
2019-03-06T01:13:02.792Z,-457.28
2019-03-06T01:14:03.085Z,-454.09
2019-03-06T01:15:03.364Z,-455.39
2019-03-06T01:16:03.639Z,-455.11
2019-03-06T01:17:03.936Z,-455.88
2019-03-06T01:18:04.206Z,-457.60
2019-03-06T01:19:04.447Z,-455.61
2019-03-06T01:20:04.750Z,-456.57
2019-03-06T01:21:05.019Z,-457.65
2019-03-06T01:22:05.320Z,-457.27
2019-03-06T01:23:05.564Z,-455.35
2019-03-06T01:24:05.825Z,-456.54
2019-03-06T01:25:06.132Z,-455.79
2019-03-06T01:26:06.474Z,-456.54
2019-03-06T01:27:06.972Z,-429.03
2019-03-06T01:28:06.964Z,-433.02
2019-03-06T01:29:07.244Z,-433.49
2019-03-06T01:30:07.519Z,-430.48
2019-03-06T01:31:07.794Z,-432.44
2019-03-06T01:32:08.102Z,-430.94
2019-03-06T01:33:08.360Z,-430.60
2019-03-06T01:34:08.740Z,-430.80
2019-03-06T01:35:09.037Z,-432.84
2019-03-06T01:36:09.189Z,-432.11
2019-03-06T01:37:09.511Z,-432.74
2019-03-06T01:38:09.775Z,-434.36
2019-03-06T01:39:10.037Z,-431.27
2019-03-06T01:40:10.329Z,-434.57
2019-03-06T01:41:10.567Z,-432.67
2019-03-06T01:42:10.860Z,-432.33
2019-03-06T01:43:11.293Z,-433.36
2019-03-06T01:44:11.447Z,-433.63
2019-03-06T01:45:11.747Z,-434.22
2019-03-06T01:46:11.987Z,-433.38
2019-03-06T01:47:12.283Z,-435.39
2019-03-06T01:48:12.584Z,-434.41
2019-03-06T01:49:12.833Z,-435.11
2019-03-06T01:50:13.127Z,-433.96
2019-03-06T01:51:13.446Z,-436.85
2019-03-06T01:52:13.648Z,-436.04
2019-03-06T01:53:13.998Z,-434.60
2019-03-06T01:54:14.222Z,-433.94
2019-03-06T01:55:14.520Z,-434.50
2019-03-06T01:56:14.816Z,-436.03
2019-03-06T01:57:15.051Z,-433.96
2019-03-06T01:58:15.346Z,-434.77
2019-03-06T01:59:15.668Z,-434.29
2019-03-06T02:00:15.874Z,-433.87
2019-03-06T02:01:16.140Z,-432.37
2019-03-06T02:02:16.420Z,-431.90
2019-03-06T02:03:16.723Z,-432.04
2019-03-06T02:04:16.973Z,-433.51
2019-03-06T02:05:17.272Z,-432.17
2019-03-06T02:06:17.534Z,-433.23
2019-03-06T02:07:17.827Z,-432.23
2019-03-06T02:08:18.177Z,-434.06
2019-03-06T02:09:18.372Z,-432.91
2019-03-06T02:10:18.666Z,-433.87
2019-03-06T02:11:18.928Z,-431.29
2019-03-06T02:12:19.206Z,-434.51
2019-03-06T02:13:19.496Z,-433.01
2019-03-06T02:14:19.763Z,-433.84
2019-03-06T02:15:20.040Z,-432.74
2019-03-06T02:16:20.396Z,-432.91
2019-03-06T02:17:20.584Z,-433.57
2019-03-06T02:18:20.872Z,-434.06
2019-03-06T02:19:21.122Z,-432.25
2019-03-06T02:20:21.431Z,-432.57
2019-03-06T02:21:21.708Z,-433.96
2019-03-06T02:22:21.984Z,-434.93
2019-03-06T02:23:22.271Z,-431.41
2019-03-06T02:24:22.628Z,-430.88
2019-03-06T02:25:22.801Z,-433.20
2019-03-06T02:26:23.078Z,-431.50
2019-03-06T02:27:23.353Z,-430.95
2019-03-06T02:28:23.641Z,-430.39
2019-03-06T02:29:23.914Z,-430.91
2019-03-06T02:30:24.209Z,-430.10
2019-03-06T02:31:24.443Z,-430.25
2019-03-06T02:32:24.789Z,-431.24
2019-03-06T02:33:25.017Z,-431.12
2019-03-06T02:34:25.284Z,-432.65
2019-03-06T02:35:25.571Z,-432.25
2019-03-06T02:36:25.825Z,-432.69
2019-03-06T02:37:26.084Z,-432.77
2019-03-06T02:38:26.398Z,-431.21
2019-03-06T02:39:26.661Z,-433.27
2019-03-06T02:40:26.969Z,-431.38
2019-03-06T02:41:27.275Z,-429.35
2019-03-06T02:42:27.482Z,-432.86
2019-03-06T02:43:27.793Z,-433.47
2019-03-06T02:44:28.067Z,-430.06
2019-03-06T02:45:28.327Z,-431.67
2019-03-06T02:46:28.631Z,-430.10
2019-03-06T02:47:28.904Z,-431.52
2019-03-06T02:48:29.192Z,-430.88
2019-03-06T02:49:29.574Z,-431.05
2019-03-06T02:50:29.726Z,-433.70
2019-03-06T02:51:30.019Z,-431.88
2019-03-06T02:52:30.275Z,-430.16
2019-03-06T02:53:30.555Z,-433.16
2019-03-06T02:54:30.835Z,-432.22
2019-03-06T02:55:31.101Z,-432.23
2019-03-06T02:56:31.398Z,-429.52
2019-03-06T02:57:31.772Z,-431.17
2019-03-06T02:58:31.947Z,-430.56
2019-03-06T02:59:32.244Z,-430.34
2019-03-06T03:00:32.517Z,-432.69
2019-03-06T03:01:32.794Z,-431.03
2019-03-06T03:02:33.057Z,-428.51
2019-03-06T03:03:33.352Z,-429.69
2019-03-06T03:04:33.604Z,-430.49
2019-03-06T03:05:33.977Z,-429.64
2019-03-06T03:06:34.389Z,-430.69
2019-03-06T03:07:34.434Z,-430.28
2019-03-06T03:08:34.717Z,-431.99
2019-03-06T03:09:34.986Z,-430.60
2019-03-06T03:10:35.269Z,-430.87
2019-03-06T03:11:35.547Z,-425.04
2019-03-06T03:12:35.806Z,-426.88
2019-03-06T03:13:36.156Z,-424.71
2019-03-06T03:14:36.432Z,-428.21
2019-03-06T03:15:36.609Z,-429.54
2019-03-06T03:16:36.926Z,-428.77
2019-03-06T03:17:37.195Z,-428.11
2019-03-06T03:18:37.493Z,-426.74
2019-03-06T03:19:37.771Z,-428.06
2019-03-06T03:20:38.030Z,-429.09
2019-03-06T03:21:38.315Z,-429.62
2019-03-06T03:22:38.667Z,-427.81
2019-03-06T03:23:38.895Z,-431.75
2019-03-06T03:24:39.168Z,-430.26
2019-03-06T03:25:39.422Z,-426.71
2019-03-06T03:26:39.720Z,-428.62
2019-03-06T03:27:39.959Z,-432.10
2019-03-06T03:28:40.271Z,-429.93
2019-03-06T03:29:40.550Z,-429.74
2019-03-06T03:30:40.950Z,-429.81
2019-03-06T03:31:41.086Z,-429.57
2019-03-06T03:32:41.436Z,-430.28
2019-03-06T03:33:41.672Z,-431.64
2019-03-06T03:34:41.956Z,-432.44
2019-03-06T03:35:42.211Z,-431.68
2019-03-06T03:36:42.512Z,-432.13
2019-03-06T03:37:42.750Z,-429.95
2019-03-06T03:38:43.098Z,-431.22
2019-03-06T03:39:43.311Z,-429.97
2019-03-06T03:40:43.589Z,-428.42
2019-03-06T03:41:43.877Z,-430.37
2019-03-06T03:42:44.130Z,-432.49
2019-03-06T03:43:44.398Z,-430.18
2019-03-06T03:44:44.721Z,-428.07
2019-03-06T03:45:44.969Z,-426.40
2019-03-06T03:46:45.297Z,-422.96
2019-03-06T03:47:45.503Z,-425.70
2019-03-06T03:48:45.771Z,-428.40
2019-03-06T03:49:46.074Z,-429.50
2019-03-06T03:50:46.353Z,-429.82
2019-03-06T03:51:46.643Z,-430.27
2019-03-06T03:52:46.918Z,-431.22
2019-03-06T03:53:47.192Z,-429.83
2019-03-06T03:54:47.538Z,-429.70
2019-03-06T03:55:47.765Z,-430.82
2019-03-06T03:56:48.051Z,-431.39
2019-03-06T03:57:48.309Z,-430.25
2019-03-06T03:58:48.587Z,-429.42
2019-03-06T03:59:48.889Z,-426.24
2019-03-06T04:00:49.131Z,-429.27
2019-03-06T04:01:49.433Z,-425.95
2019-03-06T04:02:49.713Z,-449.75
2019-03-06T04:03:50.111Z,-452.08
2019-03-06T04:04:50.303Z,-451.02
2019-03-06T04:05:50.513Z,-448.15
2019-03-06T04:06:50.819Z,-449.20
2019-03-06T04:07:51.077Z,-449.45
2019-03-06T04:08:51.357Z,-449.92
2019-03-06T04:09:51.682Z,-446.16
2019-03-06T04:10:51.929Z,-447.21
2019-03-06T04:11:52.300Z,-447.57
2019-03-06T04:12:52.457Z,-446.02
2019-03-06T04:13:52.733Z,-446.15
2019-03-06T04:14:53.049Z,-446.40
2019-03-06T04:15:53.285Z,-445.96
2019-03-06T04:16:53.568Z,-447.90
2019-03-06T04:17:53.836Z,-442.26
2019-03-06T04:18:54.132Z,-443.18
2019-03-06T04:19:54.501Z,-442.59
2019-03-06T04:20:54.665Z,-444.72
2019-03-06T04:21:54.973Z,-445.15
2019-03-06T04:22:55.212Z,-420.78
2019-03-06T04:23:55.504Z,-422.12
2019-03-06T04:24:55.825Z,-419.99
2019-03-06T04:25:56.056Z,-419.46
2019-03-06T04:26:56.346Z,-418.78
2019-03-06T04:27:56.625Z,-420.90
2019-03-06T04:28:56.870Z,-419.38
2019-03-06T04:29:57.223Z,-421.44
2019-03-06T04:30:57.449Z,-420.20
2019-03-06T04:31:57.736Z,-420.70
2019-03-06T04:32:58.008Z,-421.61
2019-03-06T04:33:58.268Z,-420.89
2019-03-06T04:34:58.592Z,-423.04
2019-03-06T04:35:58.892Z,-418.82
2019-03-06T04:36:59.201Z,-420.28
2019-03-06T04:37:59.385Z,-415.58
2019-03-06T04:38:59.644Z,-420.29
2019-03-06T04:40:00.303Z,-419.71
2019-03-06T04:41:00.230Z,-418.60
2019-03-06T04:42:00.532Z,-419.16
2019-03-06T04:43:00.783Z,-415.99
2019-03-06T04:44:01.299Z,-418.24
2019-03-06T04:45:01.512Z,-415.45
2019-03-06T04:46:01.605Z,-421.46
2019-03-06T04:47:01.880Z,-418.48
2019-03-06T04:48:02.154Z,-416.06
2019-03-06T04:49:02.438Z,-416.57
2019-03-06T04:50:02.775Z,-417.45
2019-03-06T04:51:02.978Z,-418.18
2019-03-06T04:52:03.275Z,-421.06
2019-03-06T04:53:03.650Z,-419.66
2019-03-06T04:54:03.838Z,-417.94
2019-03-06T04:55:04.157Z,-421.63
2019-03-06T04:56:04.370Z,-415.26
2019-03-06T04:57:04.664Z,-415.22
2019-03-06T04:58:04.950Z,-416.05
2019-03-06T04:59:05.232Z,-415.95
2019-03-06T05:00:05.779Z,-415.35
2019-03-06T05:01:05.822Z,-417.19
2019-03-06T05:02:06.034Z,-415.68
2019-03-06T05:03:06.353Z,-418.34
2019-03-06T05:04:06.599Z,-417.05
2019-03-06T05:05:06.918Z,-418.32
2019-03-06T05:06:07.160Z,-416.11
2019-03-06T05:07:07.440Z,-419.45
2019-03-06T05:08:07.747Z,-418.27
2019-03-06T05:09:08.046Z,-417.82
2019-03-06T05:10:08.385Z,-415.75
2019-03-06T05:11:08.546Z,-414.90
2019-03-06T05:12:08.810Z,-418.68
2019-03-06T05:13:09.098Z,-416.45
2019-03-06T05:14:09.373Z,-416.28
2019-03-06T05:15:09.723Z,-419.02
2019-03-06T05:16:09.927Z,-419.06
2019-03-06T05:17:10.209Z,-417.09
2019-03-06T05:18:10.648Z,-418.31
2019-03-06T05:19:10.753Z,-416.13
2019-03-06T05:20:11.089Z,-413.36
2019-03-06T05:21:11.306Z,-418.05
2019-03-06T05:22:11.577Z,-413.68
2019-03-06T05:23:11.871Z,-412.53
2019-03-06T05:24:12.120Z,-416.13
2019-03-06T05:25:12.462Z,-414.93
2019-03-06T05:26:12.834Z,-415.74
2019-03-06T05:27:12.974Z,-416.13
2019-03-06T05:28:13.276Z,-418.72
2019-03-06T05:29:13.514Z,-413.31
2019-03-06T05:30:13.850Z,-416.63
2019-03-06T05:31:14.097Z,-413.88
2019-03-06T05:32:14.375Z,-411.05
2019-03-06T05:33:14.671Z,-413.71
2019-03-06T05:34:15.607Z,-411.29
2019-03-06T05:35:15.220Z,-414.02
2019-03-06T05:36:15.476Z,-408.87
2019-03-06T05:37:15.770Z,-405.89
2019-03-06T05:38:16.609Z,-409.44
2019-03-06T05:39:16.316Z,-410.47
2019-03-06T05:40:16.644Z,-410.56
2019-03-06T05:41:16.846Z,-410.94
2019-03-06T05:42:17.177Z,-414.30
2019-03-06T05:43:17.434Z,-411.24
2019-03-06T05:44:17.697Z,-409.36
2019-03-06T05:45:18.019Z,-411.35
2019-03-06T05:46:18.250Z,-409.11
2019-03-06T05:47:18.503Z,-413.55
2019-03-06T05:48:18.821Z,-413.94
2019-03-06T05:49:19.080Z,-416.21
2019-03-06T05:50:20.257Z,-414.27
2019-03-06T05:51:19.789Z,-412.18
2019-03-06T05:52:19.909Z,-413.99
2019-03-06T05:53:20.221Z,-415.38
2019-03-06T05:54:20.481Z,-412.92
2019-03-06T05:55:20.791Z,-413.73
2019-03-06T05:56:21.036Z,-412.06
2019-03-06T05:57:21.315Z,-409.82
2019-03-06T05:58:21.589Z,-409.53
2019-03-06T05:59:21.966Z,-412.28
2019-03-06T06:00:22.206Z,-412.80
2019-03-06T06:01:22.493Z,-413.64
2019-03-06T06:02:22.772Z,-415.32
2019-03-06T06:03:23.044Z,-416.08
2019-03-06T06:04:23.350Z,-414.94
2019-03-06T06:05:23.604Z,-416.60
2019-03-06T06:06:23.898Z,-410.07
2019-03-06T06:07:24.252Z,-414.32
2019-03-06T06:08:24.432Z,-413.52
2019-03-06T06:09:24.705Z,-413.48
2019-03-06T06:10:24.980Z,-413.33
2019-03-06T06:11:25.284Z,-411.18
2019-03-06T06:12:25.534Z,-417.01
2019-03-06T06:13:25.830Z,-415.46
2019-03-06T06:14:26.088Z,-413.21
2019-03-06T06:15:26.393Z,-417.07
2019-03-06T06:16:26.651Z,-411.98
2019-03-06T06:17:26.906Z,-415.06
2019-03-06T06:18:27.274Z,-417.15
2019-03-06T06:19:27.463Z,-414.91
2019-03-06T06:20:27.723Z,-413.40
2019-03-06T06:21:28.305Z,-415.36
2019-03-06T06:22:28.559Z,-415.66
2019-03-06T06:23:29.112Z,-415.71
2019-03-06T06:24:29.198Z,-410.98
2019-03-06T06:25:29.368Z,-411.47
2019-03-06T06:26:29.674Z,-413.91
2019-03-06T06:27:29.937Z,-411.34
2019-03-06T06:28:30.229Z,-414.09
2019-03-06T06:29:30.491Z,-418.07
2019-03-06T06:30:30.768Z,-416.01
2019-03-06T06:31:31.105Z,-415.71
2019-03-06T06:32:32.865Z,-416.96
2019-03-06T06:33:31.620Z,-415.29
2019-03-06T06:34:31.877Z,-412.69
2019-03-06T06:35:32.149Z,-415.22
2019-03-06T06:36:32.452Z,-413.78
2019-03-06T06:37:32.687Z,-416.33
2019-03-06T06:38:33.019Z,-415.38
2019-03-06T06:39:33.277Z,-417.08
2019-03-06T06:40:35.552Z,-416.60
2019-03-06T06:41:33.816Z,-417.80
2019-03-06T06:42:34.053Z,-415.25
2019-03-06T06:43:34.373Z,-419.15
2019-03-06T06:44:34.649Z,-414.04
2019-03-06T06:45:34.908Z,-417.03
2019-03-06T06:46:35.196Z,-417.84
2019-03-06T06:47:35.460Z,-414.68
2019-03-06T06:48:35.778Z,-413.81
2019-03-06T06:49:36.017Z,-417.51
2019-03-06T06:50:36.280Z,-416.55
2019-03-06T06:51:36.573Z,-414.35
2019-03-06T06:52:36.843Z,-414.87
2019-03-06T06:53:37.122Z,-414.51
2019-03-06T06:54:37.366Z,-412.93
2019-03-06T06:55:37.658Z,-414.30
2019-03-06T06:56:37.986Z,-414.08
2019-03-06T06:57:38.255Z,-415.10
2019-03-06T06:58:38.505Z,-412.41
2019-03-06T06:59:38.759Z,-414.34
2019-03-06T07:00:39.048Z,-412.56
2019-03-06T07:01:39.364Z,-406.80
2019-03-06T07:02:39.676Z,-396.47
2019-03-06T07:03:39.913Z,-401.82
2019-03-06T07:04:40.198Z,-411.32
2019-03-06T07:05:40.635Z,-410.05
2019-03-06T07:06:40.742Z,-383.87
2019-03-06T07:07:40.999Z,-403.87
2019-03-06T07:08:41.280Z,-408.75
2019-03-06T07:09:41.552Z,-414.95
2019-03-06T07:10:41.824Z,-415.44
2019-03-06T07:11:42.124Z,-414.80
2019-03-06T07:12:42.416Z,-333.16
2019-03-06T07:13:42.769Z,-388.82
2019-03-06T07:14:42.966Z,-401.35
2019-03-06T07:15:43.251Z,-396.14
2019-03-06T07:16:43.542Z,-356.22
2019-03-06T07:17:43.810Z,-398.00
2019-03-06T07:18:44.079Z,-408.09
2019-03-06T07:19:44.371Z,-410.10
2019-03-06T07:20:44.664Z,-408.74
2019-03-06T07:21:44.995Z,-410.92
2019-03-06T07:22:45.176Z,-410.87
2019-03-06T07:23:45.467Z,-411.49
2019-03-06T07:24:45.761Z,-412.46
2019-03-06T07:25:46.039Z,-413.19
2019-03-06T07:26:46.327Z,-414.93
2019-03-06T07:27:46.569Z,-412.38
2019-03-06T07:28:46.849Z,-414.69
2019-03-06T07:29:47.207Z,-411.29
2019-03-06T07:30:47.396Z,-415.15
2019-03-06T07:31:47.683Z,-412.70
2019-03-06T07:32:47.963Z,-415.96
2019-03-06T07:33:48.227Z,-418.55
2019-03-06T07:34:48.526Z,-416.91
2019-03-06T07:35:48.800Z,-419.31
2019-03-06T07:36:49.085Z,-419.35
2019-03-06T07:37:49.411Z,-420.61
2019-03-06T07:38:49.676Z,-418.59
2019-03-06T07:39:49.917Z,-420.92
2019-03-06T07:40:50.175Z,-418.72
2019-03-06T07:41:50.478Z,-419.94
2019-03-06T07:42:50.738Z,-420.27
2019-03-06T07:43:50.994Z,-422.87
2019-03-06T07:44:51.299Z,-420.71
2019-03-06T07:45:51.593Z,-421.54
2019-03-06T07:46:51.953Z,-418.25
2019-03-06T07:47:52.124Z,-421.74
2019-03-06T07:48:52.411Z,-424.99
2019-03-06T07:49:52.690Z,-424.28
2019-03-06T07:50:52.948Z,-423.54
2019-03-06T07:51:53.251Z,-423.36
2019-03-06T07:52:53.515Z,-427.52
2019-03-06T07:53:53.803Z,-423.72
2019-03-06T07:54:54.178Z,-417.77
2019-03-06T07:55:54.327Z,-418.25
2019-03-06T07:56:54.626Z,-418.89
2019-03-06T07:57:54.885Z,-420.13
2019-03-06T07:58:55.448Z,-422.40
2019-03-06T07:59:55.447Z,-425.65
2019-03-06T08:00:55.698Z,-427.29
2019-03-06T08:01:56.021Z,-423.52
2019-03-06T08:02:56.314Z,-422.71
2019-03-06T08:03:56.523Z,-424.16
2019-03-06T08:04:56.822Z,-421.94
2019-03-06T08:05:57.082Z,-423.80
2019-03-06T08:06:57.369Z,-424.20
2019-03-06T08:07:57.632Z,-425.88
2019-03-06T08:08:57.934Z,-423.67
2019-03-06T08:09:58.222Z,-426.57
2019-03-06T08:10:58.520Z,-428.03
2019-03-06T08:11:58.755Z,-425.74
2019-03-06T08:12:59.032Z,-423.24
2019-03-06T08:13:59.325Z,-423.86
2019-03-06T08:14:59.607Z,-418.88
2019-03-06T08:15:59.867Z,-418.61
2019-03-06T08:17:00.154Z,-425.25
2019-03-06T08:18:00.407Z,-426.96
2019-03-06T08:19:00.724Z,-429.80
2019-03-06T08:20:01.134Z,-430.14
2019-03-06T08:21:01.263Z,-429.17
2019-03-06T08:22:01.528Z,-428.11
2019-03-06T08:23:01.836Z,-424.89
2019-03-06T08:24:02.139Z,-432.33
2019-03-06T08:25:02.421Z,-434.87
2019-03-06T08:26:02.675Z,-427.01
2019-03-06T08:27:02.957Z,-432.69
2019-03-06T08:28:03.373Z,-432.90
2019-03-06T08:29:03.565Z,-433.07
2019-03-06T08:30:03.806Z,-428.98
2019-03-06T08:31:04.062Z,-426.00
2019-03-06T08:32:04.350Z,-430.34
2019-03-06T08:33:04.633Z,-431.95
2019-03-06T08:34:04.913Z,-430.48
2019-03-06T08:35:05.185Z,-428.88
2019-03-06T08:36:05.499Z,-421.80
2019-03-06T08:37:05.706Z,-425.62
2019-03-06T08:38:06.006Z,-427.63
2019-03-06T08:39:06.279Z,-427.30
2019-03-06T08:40:06.552Z,-429.92
2019-03-06T08:41:06.817Z,-432.14
2019-03-06T08:42:07.097Z,-431.64
2019-03-06T08:43:07.390Z,-428.40
2019-03-06T08:44:07.719Z,-428.07
2019-03-06T08:45:07.905Z,-428.51
2019-03-06T08:46:08.184Z,-426.70
2019-03-06T08:47:08.483Z,-431.99
2019-03-06T08:48:08.783Z,-431.80
2019-03-06T08:49:09.073Z,-427.34
2019-03-06T08:50:09.330Z,-433.75
2019-03-06T08:51:09.580Z,-432.36
2019-03-06T08:52:09.883Z,-431.26
2019-03-06T08:53:10.247Z,-431.03
2019-03-06T08:54:10.542Z,-431.36
2019-03-06T08:55:10.923Z,-421.89
2019-03-06T08:56:10.959Z,-423.13
2019-03-06T08:57:11.249Z,-430.01
2019-03-06T08:58:11.560Z,-434.20
2019-03-06T08:59:11.841Z,-433.54
2019-03-06T09:00:12.114Z,-432.24
2019-03-06T09:01:12.475Z,-436.45
2019-03-06T09:02:15.443Z,-432.16
2019-03-06T09:03:13.038Z,-436.93
2019-03-06T09:04:13.279Z,-437.28
2019-03-06T09:05:13.580Z,-432.12
2019-03-06T09:06:13.844Z,-433.85
2019-03-06T09:07:14.108Z,-432.55
2019-03-06T09:08:14.423Z,-433.65
2019-03-06T09:09:14.794Z,-434.58
2019-03-06T09:10:14.977Z,-431.03
2019-03-06T09:11:15.225Z,-430.89
2019-03-06T09:12:15.508Z,-430.86
2019-03-06T09:13:15.785Z,-432.80
2019-03-06T09:14:16.059Z,-433.10
2019-03-06T09:15:16.383Z,-425.74
2019-03-06T09:16:16.638Z,-433.10
2019-03-06T09:17:16.940Z,-434.28
2019-03-06T09:18:17.148Z,-436.76
2019-03-06T09:19:17.419Z,-438.24
2019-03-06T09:20:17.720Z,-436.13
2019-03-06T09:21:17.983Z,-434.81
2019-03-06T09:22:18.259Z,-441.60
2019-03-06T09:23:23.100Z,-439.95
2019-03-06T09:24:18.822Z,-439.77
2019-03-06T09:25:19.109Z,-436.83
2019-03-06T09:26:19.439Z,-439.78
2019-03-06T09:27:19.671Z,-437.68
2019-03-06T09:28:20.559Z,-434.04
2019-03-06T09:29:20.227Z,-432.36
2019-03-06T09:30:20.509Z,-431.63
2019-03-06T09:31:20.795Z,-434.77
2019-03-06T09:32:21.053Z,-435.54
2019-03-06T09:33:21.381Z,-428.30
2019-03-06T09:34:21.731Z,-427.56
2019-03-06T09:35:21.887Z,-408.25
2019-03-06T09:36:22.196Z,-423.13
2019-03-06T09:37:22.457Z,-434.79
2019-03-06T09:38:22.972Z,-382.55
2019-03-06T09:39:23.007Z,-418.11
2019-03-06T09:40:23.302Z,-434.64
2019-03-06T09:41:23.559Z,-422.06
2019-03-06T09:42:23.968Z,-417.64
2019-03-06T09:43:24.132Z,-423.07
2019-03-06T09:44:24.403Z,-438.66
2019-03-06T09:45:24.706Z,-436.45
2019-03-06T09:46:24.954Z,-437.02
2019-03-06T09:47:26.134Z,-434.95
2019-03-06T09:48:25.525Z,-436.53
2019-03-06T09:49:25.786Z,-439.06
2019-03-06T09:50:26.132Z,-433.87
2019-03-06T09:51:26.319Z,-436.58
2019-03-06T09:52:26.580Z,-436.48
2019-03-06T09:53:27.636Z,-436.07
2019-03-06T09:54:27.196Z,-437.42
2019-03-06T09:55:27.431Z,-432.93
2019-03-06T09:56:27.752Z,-430.90
2019-03-06T09:57:27.980Z,-419.97
2019-03-06T09:58:28.315Z,-429.91
2019-03-06T09:59:28.526Z,-433.87
2019-03-06T10:00:28.805Z,-438.00
2019-03-06T10:01:29.121Z,-442.31
2019-03-06T10:02:29.394Z,-441.35
2019-03-06T10:03:29.646Z,-443.72
2019-03-06T10:04:29.913Z,-442.80
2019-03-06T10:05:30.209Z,-447.16
2019-03-06T10:06:30.575Z,-444.28
2019-03-06T10:07:30.842Z,-441.50
2019-03-06T10:08:31.041Z,-445.25
2019-03-06T10:09:31.314Z,-445.16
2019-03-06T10:10:31.589Z,-443.84
2019-03-06T10:11:31.904Z,-443.87
2019-03-06T10:12:32.146Z,-441.38
2019-03-06T10:13:32.438Z,-443.44
2019-03-06T10:14:32.702Z,-439.81
2019-03-06T10:15:33.115Z,-438.45
2019-03-06T10:16:33.276Z,-442.16
2019-03-06T10:17:33.549Z,-442.56
2019-03-06T10:18:33.831Z,-443.83
2019-03-06T10:19:34.103Z,-440.52
2019-03-06T10:20:34.366Z,-438.27
2019-03-06T10:21:34.683Z,-437.91
2019-03-06T10:22:34.944Z,-436.13
2019-03-06T10:23:35.299Z,-439.88
2019-03-06T10:24:35.546Z,-432.96
2019-03-06T10:25:35.763Z,-440.66
2019-03-06T10:26:36.075Z,-438.43
2019-03-06T10:27:36.332Z,-438.32
2019-03-06T10:28:36.739Z,-440.66
2019-03-06T10:29:36.916Z,-440.49
2019-03-06T10:30:37.192Z,-446.96
2019-03-06T10:31:38.512Z,-442.49
2019-03-06T10:32:37.719Z,-439.75
2019-03-06T10:33:38.005Z,-443.03
2019-03-06T10:34:38.293Z,-439.51
2019-03-06T10:35:38.573Z,-427.48
2019-03-06T10:36:38.855Z,-441.46
2019-03-06T10:37:39.110Z,-440.07
2019-03-06T10:38:39.403Z,-440.62
2019-03-06T10:39:39.754Z,-445.16
2019-03-06T10:40:40.020Z,-440.20
2019-03-06T10:41:40.293Z,-444.61
2019-03-06T10:42:40.503Z,-441.27
2019-03-06T10:43:46.452Z,-444.91
2019-03-06T10:44:42.087Z,-442.40
2019-03-06T10:45:41.914Z,-436.39
2019-03-06T10:46:41.657Z,-439.02
2019-03-06T10:47:41.905Z,-438.41
2019-03-06T10:48:42.291Z,-434.31
2019-03-06T10:49:42.488Z,-439.03
2019-03-06T10:50:42.734Z,-446.25
2019-03-06T10:51:43.058Z,-443.43
2019-03-06T10:52:43.262Z,-443.39
2019-03-06T10:53:43.537Z,-441.02
2019-03-06T10:55:45.112Z,-443.02
2019-03-06T10:56:44.534Z,-444.35
2019-03-06T10:57:44.646Z,-443.07
2019-03-06T10:58:44.938Z,-450.02
2019-03-06T10:59:45.250Z,-443.59
2019-03-06T11:00:45.511Z,-450.55
2019-03-06T11:01:45.826Z,-450.16
2019-03-06T11:02:46.061Z,-446.08
2019-03-06T11:03:46.340Z,-445.48
2019-03-06T11:04:46.677Z,-447.65
2019-03-06T11:05:46.882Z,-447.28
2019-03-06T11:06:47.212Z,-445.73
2019-03-06T11:07:47.437Z,-441.53
2019-03-06T11:08:47.714Z,-443.16
2019-03-06T11:09:48.031Z,-441.14
2019-03-06T11:10:48.249Z,-442.51
2019-03-06T11:11:48.577Z,-442.81
2019-03-06T11:12:48.871Z,-439.14
2019-03-06T11:13:49.081Z,-442.59
2019-03-06T11:14:49.386Z,-439.84
2019-03-06T11:15:55.391Z,-424.54
2019-03-06T11:16:50.966Z,-435.98
2019-03-06T11:17:50.446Z,-439.04
2019-03-06T11:18:50.485Z,-437.04
2019-03-06T11:19:50.789Z,-445.18
2019-03-06T11:20:51.061Z,-440.41
2019-03-06T11:21:51.486Z,-434.32
2019-03-06T11:22:51.598Z,-433.52
2019-03-06T11:23:51.879Z,-436.85
2019-03-06T11:24:52.171Z,-433.87
2019-03-06T11:25:52.426Z,-433.37
2019-03-06T11:26:52.748Z,-441.49
2019-03-06T11:27:52.968Z,-441.97
2019-03-06T11:28:53.260Z,-441.39
2019-03-06T11:29:53.688Z,-444.96
2019-03-06T11:30:53.813Z,-448.34
2019-03-06T11:31:54.100Z,-447.15
2019-03-06T11:32:54.782Z,-442.10
2019-03-06T11:33:54.687Z,-439.83
2019-03-06T11:34:54.985Z,-433.63
2019-03-06T11:35:55.243Z,-445.15
2019-03-06T11:36:55.518Z,-436.68
2019-03-06T11:37:55.844Z,-434.54
2019-03-06T11:38:56.077Z,-437.89
2019-03-06T11:39:56.367Z,-445.09
2019-03-06T11:40:56.653Z,-439.46
2019-03-06T11:41:56.910Z,-442.44
2019-03-06T11:42:57.224Z,-443.90
2019-03-06T11:43:57.450Z,-444.73
2019-03-06T11:44:57.776Z,-440.68
2019-03-06T11:45:58.081Z,-440.76
2019-03-06T11:46:58.280Z,-441.15
2019-03-06T11:47:58.575Z,-443.82
2019-03-06T11:48:58.827Z,-436.30
2019-03-06T11:49:59.124Z,-442.37
2019-03-06T11:50:59.386Z,-440.77
2019-03-06T11:51:59.671Z,-440.14
2019-03-06T11:53:00.063Z,-448.91
2019-03-06T11:54:00.280Z,-440.25
2019-03-06T11:55:05.887Z,-436.26
2019-03-06T11:56:01.769Z,-419.25
2019-03-06T11:57:01.059Z,-434.63
2019-03-06T11:58:01.369Z,-441.44
2019-03-06T11:59:01.614Z,-445.92
2019-03-06T12:00:01.920Z,-443.97
2019-03-06T12:01:02.145Z,-442.47
2019-03-06T12:02:02.454Z,-450.33
2019-03-06T12:03:02.902Z,-444.92
2019-03-06T12:04:03.002Z,-441.35
2019-03-06T12:05:03.278Z,-445.85
2019-03-06T12:06:03.532Z,-443.45
2019-03-06T12:07:03.828Z,-440.95
2019-03-06T12:08:04.136Z,-443.43
2019-03-06T12:09:04.389Z,-447.49
2019-03-06T12:10:04.690Z,-443.70